createdAt,value
2023-01-09T00:03:41.642Z,10.11
2023-01-09T00:08:43.103Z,10.12
2023-01-09T00:13:44.983Z,10.18
2023-01-09T00:18:46.413Z,10.21
2023-01-09T00:23:47.919Z,10.25
2023-01-09T00:28:51.071Z,10.44
2023-01-09T00:34:01.093Z,10.43
2023-01-09T00:39:02.789Z,10.46
2023-01-09T00:44:13.163Z,10.43
2023-01-09T00:49:16.097Z,10.40
2023-01-09T00:54:19.811Z,10.48
2023-01-09T00:59:21.430Z,10.47
2023-01-09T01:04:22.933Z,10.58
2023-01-09T01:09:24.481Z,10.61
2023-01-09T01:14:27.041Z,10.40
2023-01-09T01:19:28.597Z,10.34
2023-01-09T01:24:30.080Z,10.35
2023-01-09T01:29:31.582Z,10.40
2023-01-09T01:34:33.107Z,10.36
2023-01-09T01:39:34.673Z,10.38
2023-01-09T01:45:01.410Z,10.27
2023-01-09T01:50:08.276Z,10.33
2023-01-09T01:55:10.182Z,10.42
2023-01-09T02:00:12.277Z,10.47
2023-01-09T02:05:13.770Z,10.50
2023-01-09T02:10:15.575Z,10.43
2023-01-09T02:15:18.566Z,10.48
2023-01-09T02:20:31.752Z,10.52
2023-01-09T02:26:23.748Z,10.56
2023-01-09T02:31:39.376Z,10.60
2023-01-09T02:36:59.316Z,10.57
2023-01-09T02:42:04.031Z,10.61
2023-01-09T02:47:17.502Z,10.43
2023-01-09T02:52:43.087Z,10.26
2023-01-09T02:58:22.300Z,10.10
2023-01-09T03:03:34.709Z,9.97
2023-01-09T03:08:47.840Z,9.96
2023-01-09T03:13:53.529Z,9.75
2023-01-09T03:18:58.473Z,9.55
2023-01-09T03:24:02.167Z,9.61
2023-01-09T03:29:03.856Z,9.51
2023-01-09T03:34:05.372Z,9.31
2023-01-09T03:39:06.863Z,9.16
2023-01-09T03:44:08.418Z,8.90
2023-01-09T03:49:09.918Z,8.79
2023-01-09T03:54:11.400Z,8.49
2023-01-09T03:59:12.862Z,8.55
2023-01-09T04:04:14.393Z,8.47
2023-01-09T04:09:15.929Z,8.53
2023-01-09T04:14:17.482Z,8.65
2023-01-09T04:19:18.919Z,8.72
2023-01-09T04:24:20.375Z,8.79
2023-01-09T04:29:21.864Z,8.74
2023-01-09T04:34:23.329Z,8.66
2023-01-09T04:39:24.776Z,8.90
2023-01-09T04:44:26.334Z,8.96
2023-01-09T04:49:28.149Z,8.87
2023-01-09T04:54:29.618Z,8.72
2023-01-09T04:59:31.442Z,8.73
2023-01-09T05:04:33.126Z,8.85
2023-01-09T05:09:34.614Z,8.95
2023-01-09T05:14:36.070Z,8.71
2023-01-09T05:19:37.572Z,8.60
2023-01-09T05:24:39.074Z,8.51
2023-01-09T05:29:40.662Z,8.44
2023-01-09T05:34:42.118Z,8.23
2023-01-09T05:39:43.665Z,8.40
2023-01-09T05:44:45.130Z,8.65
2023-01-09T05:49:46.595Z,8.66
2023-01-09T05:54:48.142Z,8.58
2023-01-09T05:59:49.671Z,8.66
2023-01-09T06:04:51.138Z,8.74
2023-01-09T06:09:52.645Z,8.60
2023-01-09T06:14:54.131Z,8.58
2023-01-09T06:19:55.614Z,8.53
2023-01-09T06:24:57.060Z,8.47
2023-01-09T06:29:58.550Z,8.52
2023-01-09T06:34:59.993Z,8.56
2023-01-09T06:40:01.590Z,8.50
2023-01-09T06:45:03.241Z,8.60
2023-01-09T06:50:05.741Z,8.62
2023-01-09T06:55:08.305Z,8.58
2023-01-09T07:00:10.443Z,8.64
2023-01-09T07:05:12.350Z,8.26
2023-01-09T07:10:14.938Z,7.99
2023-01-09T07:15:16.487Z,8.15
2023-01-09T07:20:18.073Z,8.43
2023-01-09T07:25:19.777Z,8.57
2023-01-09T07:30:21.318Z,8.55
2023-01-09T07:35:22.840Z,8.77
2023-01-09T07:40:24.323Z,8.55
2023-01-09T07:45:25.877Z,8.52
2023-01-09T07:50:27.502Z,8.77
2023-01-09T07:55:28.938Z,8.70
2023-01-09T08:00:32.415Z,8.73
2023-01-09T08:05:34.630Z,8.78
2023-01-09T08:10:36.139Z,9.03
2023-01-09T08:15:37.617Z,9.09
2023-01-09T08:20:39.143Z,9.32
2023-01-09T08:25:40.619Z,9.47
2023-01-09T08:30:42.081Z,9.61
2023-01-09T08:35:44.330Z,9.75
2023-01-09T08:40:47.300Z,9.65
2023-01-09T08:45:48.840Z,9.26
2023-01-09T08:50:50.378Z,9.39
2023-01-09T08:55:51.906Z,9.40
2023-01-09T09:00:53.412Z,9.63
2023-01-09T09:05:54.913Z,9.77
2023-01-09T09:10:56.352Z,9.72
2023-01-09T09:15:57.902Z,9.80
2023-01-09T09:20:59.375Z,10.02
2023-01-09T09:26:00.859Z,9.82
2023-01-09T09:31:05.990Z,9.94
2023-01-09T09:36:07.759Z,9.81
2023-01-09T09:41:31.057Z,9.97
2023-01-09T09:46:37.164Z,9.93
2023-01-09T09:51:46.517Z,9.84
2023-01-09T09:56:52.901Z,9.97
2023-01-09T10:02:09.468Z,10.03
2023-01-09T10:07:21.634Z,10.01
2023-01-09T10:12:46.015Z,10.39
2023-01-09T10:17:50.374Z,10.49
2023-01-09T10:22:58.168Z,10.60
2023-01-09T10:28:18.781Z,10.57
2023-01-09T10:34:05.851Z,10.19
2023-01-09T10:39:15.116Z,10.27
2023-01-09T10:44:24.696Z,10.60
2023-01-09T10:49:26.580Z,11.16
2023-01-09T10:54:29.619Z,11.57
2023-01-09T10:59:31.176Z,11.52
2023-01-09T11:04:36.240Z,11.63
2023-01-09T11:10:17.594Z,11.49
2023-01-09T11:15:18.990Z,11.60
2023-01-09T11:20:29.621Z,11.00
2023-01-09T11:25:31.334Z,10.93
2023-01-09T11:30:37.121Z,10.95
2023-01-09T11:35:38.612Z,11.07
2023-01-09T11:40:52.112Z,11.04
2023-01-09T11:46:01.211Z,11.01
2023-01-09T11:51:21.988Z,11.33
2023-01-09T11:56:23.659Z,11.30
2023-01-09T12:01:53.359Z,11.83
2023-01-09T12:07:15.923Z,12.61
2023-01-09T12:12:48.277Z,12.60
2023-01-09T12:18:18.792Z,12.37
2023-01-09T12:23:28.439Z,11.71
2023-01-09T12:28:45.587Z,11.93
2023-01-09T12:34:05.467Z,12.13
2023-01-09T12:39:17.256Z,12.16
2023-01-09T12:44:35.840Z,11.90
2023-01-09T12:49:44.351Z,11.09
2023-01-09T12:54:53.372Z,10.68
2023-01-09T13:00:28.886Z,10.90
2023-01-09T13:05:36.941Z,10.99
2023-01-09T13:10:42.647Z,11.10
2023-01-09T13:16:00.535Z,11.05
2023-01-09T13:21:02.443Z,10.61
2023-01-09T13:26:08.630Z,10.42
2023-01-09T13:31:27.397Z,10.23
2023-01-09T13:36:36.935Z,10.12
2023-01-09T13:41:48.228Z,10.15
2023-01-09T13:46:53.114Z,10.04
2023-01-09T13:52:01.736Z,10.32
2023-01-09T13:57:18.438Z,9.99
2023-01-09T14:02:35.153Z,10.16
2023-01-09T14:07:41.663Z,9.96
2023-01-09T14:12:43.735Z,10.04
2023-01-09T14:17:45.233Z,10.21
2023-01-09T14:22:56.168Z,10.46
2023-01-09T14:28:18.683Z,10.63
2023-01-09T14:33:20.123Z,10.40
2023-01-09T14:38:40.083Z,10.27
2023-01-09T14:43:45.143Z,10.35
2023-01-09T14:49:30.249Z,10.21
2023-01-09T14:54:36.241Z,10.26
2023-01-09T14:59:37.805Z,10.42
2023-01-09T15:04:41.141Z,10.18
2023-01-09T15:09:46.680Z,10.53
2023-01-09T15:14:53.655Z,10.37
2023-01-09T15:19:56.260Z,10.40
2023-01-09T15:24:59.538Z,10.52
2023-01-09T15:30:15.772Z,10.56
2023-01-09T15:35:18.061Z,10.33
2023-01-09T15:40:23.406Z,9.87
2023-01-09T15:45:38.703Z,9.92
2023-01-09T15:50:41.356Z,10.11
2023-01-09T15:55:43.326Z,9.96
2023-01-09T16:00:45.346Z,9.58
2023-01-09T16:05:51.344Z,9.56
2023-01-09T16:10:56.969Z,9.39
2023-01-09T16:16:00.769Z,9.33
2023-01-09T16:21:24.191Z,9.40
2023-01-09T16:26:28.448Z,9.40
2023-01-09T16:31:30.832Z,9.25
2023-01-09T16:36:36.311Z,8.95
2023-01-09T16:41:42.609Z,8.69
2023-01-09T16:46:45.061Z,8.62
2023-01-09T16:51:47.686Z,8.43
2023-01-09T16:56:52.316Z,8.44
2023-01-09T17:01:54.541Z,8.50
2023-01-09T17:06:56.051Z,8.62
2023-01-09T17:11:57.482Z,8.64
2023-01-09T17:16:59.446Z,8.52
2023-01-09T17:22:01.218Z,8.19
2023-01-09T17:27:03.234Z,8.43
2023-01-09T17:32:04.937Z,8.07
2023-01-09T17:37:06.506Z,8.63
2023-01-09T17:42:08.049Z,9.02
2023-01-09T17:47:15.031Z,8.99
2023-01-09T17:52:16.488Z,8.89
2023-01-09T17:57:18.112Z,8.94
2023-01-09T18:02:19.807Z,8.49
2023-01-09T18:07:21.421Z,8.22
2023-01-09T18:12:22.914Z,8.22
2023-01-09T18:17:24.367Z,8.40
2023-01-09T18:22:25.816Z,8.55
2023-01-09T18:27:27.677Z,8.45
2023-01-09T18:32:29.200Z,8.49
2023-01-09T18:37:30.661Z,8.44
2023-01-09T18:42:32.218Z,8.43
2023-01-09T18:47:33.728Z,8.33
2023-01-09T18:52:35.248Z,8.24
2023-01-09T18:57:36.792Z,8.26
2023-01-09T19:02:38.314Z,8.42
2023-01-09T19:07:39.834Z,8.49
2023-01-09T19:12:41.273Z,8.50
2023-01-09T19:17:42.710Z,8.43
2023-01-09T19:22:44.208Z,8.43
2023-01-09T19:27:45.694Z,8.50
2023-01-09T19:32:47.234Z,8.46
2023-01-09T19:37:48.747Z,8.36
2023-01-09T19:42:53.203Z,8.45
2023-01-09T19:47:54.642Z,8.48
2023-01-09T19:52:56.149Z,8.29
2023-01-09T19:57:57.643Z,8.51
2023-01-09T20:02:59.071Z,8.45
2023-01-09T20:08:00.574Z,8.01
2023-01-09T20:13:02.076Z,8.14
2023-01-09T20:18:03.705Z,8.12
2023-01-09T20:23:05.236Z,8.33
2023-01-09T20:28:06.702Z,8.17
2023-01-09T20:33:08.229Z,8.42
2023-01-09T20:38:10.522Z,8.69
2023-01-09T20:43:12.801Z,8.57
2023-01-09T20:48:14.314Z,8.62
2023-01-09T20:53:15.738Z,8.60
2023-01-09T20:58:17.238Z,8.69
2023-01-09T21:03:18.682Z,8.50
2023-01-09T21:08:20.204Z,8.55
2023-01-09T21:13:21.638Z,8.65
2023-01-09T21:18:23.059Z,8.56
2023-01-09T21:23:24.495Z,8.39
2023-01-09T21:28:27.119Z,8.63
2023-01-09T21:33:28.572Z,8.54
2023-01-09T21:38:30.124Z,8.81
2023-01-09T21:43:31.629Z,8.83
2023-01-09T21:48:33.154Z,8.88
2023-01-09T21:53:34.586Z,8.84
2023-01-09T21:58:36.026Z,9.16
2023-01-09T22:03:37.614Z,9.46
2023-01-09T22:08:39.145Z,9.22
2023-01-09T22:13:40.810Z,9.39
2023-01-09T22:18:42.250Z,9.11
2023-01-09T22:23:43.729Z,8.95
2023-01-09T22:28:45.968Z,9.03
2023-01-09T22:33:56.196Z,8.84
2023-01-09T22:38:59.863Z,8.73
2023-01-09T22:44:01.314Z,8.73
2023-01-09T22:49:02.927Z,8.60
2023-01-09T22:54:04.471Z,8.57
2023-01-09T22:59:05.936Z,8.22
2023-01-09T23:04:12.080Z,8.32
2023-01-09T23:09:13.588Z,8.48
2023-01-09T23:14:15.817Z,8.61
2023-01-09T23:19:17.334Z,8.56
2023-01-09T23:24:19.096Z,8.50
2023-01-09T23:29:21.686Z,8.34
2023-01-09T23:34:24.437Z,8.14
2023-01-09T23:39:25.896Z,8.07
2023-01-09T23:44:27.859Z,8.20
2023-01-09T23:49:29.307Z,7.96
2023-01-09T23:54:30.795Z,7.98
2023-01-09T23:59:32.338Z,7.69
